Time;durP1;ratioP1;P1;durP2;ratioP2;P2;SDS_P1;SDS_P2;PMS_P1;PMS_P2;Temp;Humidity;BMP_temperature;BMP_pressure;BME280_temperature;BME280_humidity;BME280_pressure;Samples;Min_cycle;Max_cycle;Signal;HPM_P1;HPM_P2
2021/08/12 00:01:19;;;;;;;10.55;4.78;;;28.00;96.80;;;;;;4825719;29;20058;-87
2021/08/12 00:03:45;;;;;;;8.85;5.13;;;27.90;96.90;;;;;;4827059;29;20039;-78
2021/08/12 00:06:12;;;;;;;7.55;4.82;;;27.90;97.00;;;;;;4826613;29;20087;-80
2021/08/12 00:08:38;;;;;;;10.30;4.78;;;27.90;97.00;;;;;;4826518;29;20050;-83
2021/08/12 00:11:04;;;;;;;8.32;5.05;;;27.90;96.90;;;;;;4826885;29;20034;-82
2021/08/12 00:13:30;;;;;;;11.07;4.68;;;27.90;96.90;;;;;;4826521;29;20043;-79
2021/08/12 00:15:56;;;;;;;16.63;5.65;;;27.90;96.90;;;;;;4826349;29;20063;-82
2021/08/12 00:18:22;;;;;;;23.92;5.07;;;27.90;96.90;;;;;;4826810;29;20038;-81
2021/08/12 00:20:48;;;;;;;7.82;4.72;;;27.90;96.60;;;;;;4826715;29;20111;-80
2021/08/12 00:23:13;;;;;;;13.20;5.07;;;27.90;96.50;;;;;;4825237;29;20496;-82
2021/08/12 00:25:39;;;;;;;11.90;5.03;;;28.00;96.60;;;;;;4826607;29;20042;-81
2021/08/12 00:28:05;;;;;;;14.27;4.50;;;27.90;96.70;;;;;;4826789;29;20125;-82
2021/08/12 00:30:31;;;;;;;5.68;4.45;;;27.90;96.10;;;;;;4826876;29;20035;-81
2021/08/12 00:32:56;;;;;;;8.35;5.10;;;28.00;96.60;;;;;;4826799;29;20036;-81
2021/08/12 00:35:22;;;;;;;12.60;4.85;;;27.90;96.60;;;;;;4826666;29;20047;-81
2021/08/12 00:37:48;;;;;;;9.85;4.60;;;27.90;96.80;;;;;;4825371;29;20153;-82
2021/08/12 00:40:16;;;;;;;7.20;4.65;;;27.80;96.90;;;;;;4826915;29;20075;-81
2021/08/12 00:42:42;;;;;;;8.68;4.80;;;27.80;96.20;;;;;;4825460;29;20034;-83
2021/08/12 00:45:08;;;;;;;6.82;4.32;;;27.80;96.60;;;;;;4826884;29;20031;-82
2021/08/12 00:47:34;;;;;;;16.65;4.68;;;27.80;96.70;;;;;;4826255;29;20050;-78
2021/08/12 00:49:59;;;;;;;9.85;4.20;;;27.80;95.90;;;;;;4824787;29;20495;-82
2021/08/12 00:52:25;;;;;;;7.72;4.72;;;27.80;95.80;;;;;;4826652;29;20043;-82
2021/08/12 00:54:51;;;;;;;8.55;4.75;;;27.80;96.60;;;;;;4825474;29;20042;-81
2021/08/12 00:57:19;;;;;;;9.13;5.10;;;27.80;96.70;;;;;;4826317;29;20105;-82
2021/08/12 00:59:46;;;;;;;9.55;4.32;;;27.70;96.80;;;;;;4826159;29;20058;-83
2021/08/12 01:02:15;;;;;;;9.43;5.00;;;27.70;96.80;;;;;;4825869;29;20400;-82
2021/08/12 01:04:51;;;;;;;16.40;4.25;;;27.70;96.80;;;;;;4826166;29;20030;-82
2021/08/12 01:07:27;;;;;;;7.68;4.45;;;27.60;96.90;;;;;;4824889;29;20050;-82
2021/08/12 01:10:15;;;;;;;6.07;4.50;;;27.60;97.00;;;;;;4826139;29;20038;-82
2021/08/12 01:12:46;;;;;;;8.25;5.07;;;27.60;97.10;;;;;;4826165;29;20045;-82
2021/08/12 01:15:19;;;;;;;11.85;4.28;;;27.60;97.20;;;;;;4825909;29;20070;-82
2021/08/12 01:17:51;;;;;;;8.88;4.50;;;27.60;96.90;;;;;;4826316;29;20026;-81
2021/08/12 01:20:49;;;;;;;10.52;4.72;;;27.60;96.90;;;;;;4825133;29;20056;-82
2021/08/12 01:23:15;;;;;;;12.55;4.93;;;27.50;96.90;;;;;;4825800;29;20060;-81
2021/08/12 01:25:44;;;;;;;10.45;4.95;;;27.50;97.20;;;;;;4825913;29;20038;-82
2021/08/12 01:28:18;;;;;;;10.90;5.32;;;27.50;97.10;;;;;;4825547;29;20080;-82
2021/08/12 01:30:56;;;;;;;12.45;4.38;;;27.40;97.20;;;;;;4825959;29;20034;-82
2021/08/12 01:34:10;;;;;;;8.75;4.72;;;27.40;97.10;;;;;;4825960;29;20039;-82
2021/08/12 01:36:40;;;;;;;6.88;4.15;;;27.50;97.20;;;;;;4817285;29;20050;-82
2021/08/12 01:39:07;;;;;;;6.57;4.35;;;27.40;96.40;;;;;;4825957;29;20030;-82
2021/08/12 01:41:34;;;;;;;9.98;4.88;;;27.40;96.90;;;;;;4825577;29;20072;-82
2021/08/12 01:44:00;;;;;;;8.85;4.05;;;27.40;96.80;;;;;;4825205;29;20030;-82
2021/08/12 01:46:28;;;;;;;12.82;4.53;;;27.40;96.70;;;;;;4825686;29;20112;-82
2021/08/12 01:48:56;;;;;;;4.97;4.00;;;27.30;96.60;;;;;;4825664;29;20080;-83
2021/08/12 01:51:26;;;;;;;7.57;4.47;;;27.40;96.60;;;;;;4825102;29;20496;-82
2021/08/12 01:53:52;;;;;;;7.95;4.43;;;27.30;96.50;;;;;;4825536;29;20026;-82
2021/08/12 01:56:19;;;;;;;12.32;5.05;;;27.20;96.70;;;;;;4825799;29;20039;-84
2021/08/12 01:58:46;;;;;;;6.45;3.90;;;27.20;96.60;;;;;;4825336;29;20031;-82
2021/08/12 02:01:12;;;;;;;11.32;9.02;;;27.20;96.70;;;;;;4825166;29;20589;-82
2021/08/12 02:03:39;;;;;;;5.80;4.63;;;27.20;96.70;;;;;;4825674;29;20050;-82
2021/08/12 02:06:06;;;;;;;8.32;4.68;;;27.20;96.60;;;;;;4825893;29;20605;-82
2021/08/12 02:08:32;;;;;;;15.68;5.10;;;27.10;96.80;;;;;;4825502;29;20073;-82
2021/08/12 02:10:57;;;;;;;13.25;4.97;;;27.10;97.40;;;;;;4824013;29;20484;-82
2021/08/12 02:13:25;;;;;;;8.02;4.50;;;27.00;97.50;;;;;;4825388;29;20042;-82
2021/08/12 02:15:51;;;;;;;7.13;4.47;;;27.00;96.10;;;;;;4825175;29;20037;-83
2021/08/12 02:18:17;;;;;;;7.00;4.80;;;27.00;96.40;;;;;;4825018;29;20042;-82
2021/08/12 02:20:49;;;;;;;6.75;4.60;;;27.10;96.40;;;;;;4825372;29;20038;-82
2021/08/12 02:23:27;;;;;;;9.70;5.03;;;27.00;96.20;;;;;;4823871;29;20058;-82
2021/08/12 02:25:52;;;;;;;7.47;4.18;;;27.00;96.70;;;;;;4823928;29;20043;-83
2021/08/12 02:28:19;;;;;;;7.03;4.82;;;27.00;96.40;;;;;;4823979;29;20054;-81
2021/08/12 02:30:46;;;;;;;9.93;4.45;;;26.90;96.50;;;;;;4825171;29;20035;-83
2021/08/12 02:33:15;;;;;;;11.00;4.25;;;26.90;96.60;;;;;;4824841;29;20030;-82
2021/08/12 02:35:42;;;;;;;10.60;5.00;;;26.90;96.90;;;;;;4825308;29;20042;-82
2021/08/12 02:38:11;;;;;;;7.30;4.63;;;26.90;97.10;;;;;;4824386;29;20111;-81
2021/08/12 02:40:38;;;;;;;6.32;4.57;;;26.80;97.00;;;;;;4824831;29;20026;-82
2021/08/12 02:43:05;;;;;;;9.95;4.40;;;26.80;96.90;;;;;;4824674;29;20038;-82
2021/08/12 02:45:33;;;;;;;9.77;4.97;;;26.70;96.90;;;;;;4824497;29;20035;-84
2021/08/12 02:48:01;;;;;;;9.98;4.60;;;26.70;97.20;;;;;;4824788;29;20520;-82
2021/08/12 02:50:28;;;;;;;7.07;4.05;;;26.70;97.00;;;;;;4824813;29;20035;-82
2021/08/12 02:52:55;;;;;;;9.80;4.22;;;26.70;97.20;;;;;;4824673;29;20049;-83
2021/08/12 02:55:21;;;;;;;9.60;4.60;;;26.60;97.10;;;;;;4824700;29;20038;-82
2021/08/12 02:57:48;;;;;;;7.95;5.03;;;26.50;97.00;;;;;;4824620;29;20091;-81
2021/08/12 03:00:14;;;;;;;11.80;4.85;;;26.50;97.20;;;;;;4824598;29;20500;-82
2021/08/12 03:02:48;;;;;;;7.55;4.97;;;26.40;97.20;;;;;;4824904;29;20090;-79
2021/08/12 03:05:14;;;;;;;12.75;5.20;;;26.40;97.40;;;;;;4824733;29;20523;-81
2021/08/12 03:07:43;;;;;;;8.23;5.25;;;26.30;97.60;;;;;;4824283;29;20046;-81
2021/08/12 03:10:16;;;;;;;7.20;4.60;;;26.30;97.80;;;;;;4824598;29;20030;-82
2021/08/12 03:12:43;;;;;;;7.78;4.93;;;26.20;97.80;;;;;;4823302;29;20049;-82
2021/08/12 03:15:10;;;;;;;7.90;4.95;;;26.10;97.90;;;;;;4824611;29;20039;-79
2021/08/12 03:17:36;;;;;;;7.75;4.97;;;26.10;97.90;;;;;;4824134;29;20052;-81
2021/08/12 03:20:10;;;;;;;9.32;4.95;;;26.10;98.00;;;;;;4824522;29;20027;-79
2021/08/12 03:22:35;;;;;;;13.65;4.75;;;26.10;98.10;;;;;;4824323;29;20491;-80
2021/08/12 03:25:01;;;;;;;6.82;4.68;;;26.10;98.20;;;;;;4824606;29;20123;-79
2021/08/12 03:27:27;;;;;;;7.18;4.70;;;26.10;98.10;;;;;;4824299;29;20061;-81
2021/08/12 03:29:53;;;;;;;8.13;5.45;;;26.10;98.20;;;;;;4824465;29;20533;-79
2021/08/12 03:32:20;;;;;;;10.32;5.15;;;26.10;98.20;;;;;;4824293;29;20670;-80
2021/08/12 03:34:46;;;;;;;8.43;4.93;;;26.00;98.30;;;;;;4823964;29;20060;-81
2021/08/12 03:37:13;;;;;;;13.13;5.30;;;26.00;98.40;;;;;;4824211;29;20030;-82
2021/08/12 03:39:40;;;;;;;10.18;4.95;;;26.00;98.50;;;;;;4822603;29;20404;-80
2021/08/12 03:42:06;;;;;;;9.95;5.45;;;25.90;98.30;;;;;;4824530;29;20042;-83
2021/08/12 03:44:32;;;;;;;11.00;5.15;;;25.90;98.40;;;;;;4826219;29;20030;-82
2021/08/12 03:46:58;;;;;;;13.27;5.15;;;25.90;98.50;;;;;;4827464;29;20542;-81
2021/08/12 03:49:23;;;;;;;25.70;5.25;;;25.90;98.40;;;;;;4825655;29;20384;-80
2021/08/12 03:51:49;;;;;;;14.70;5.55;;;25.80;98.40;;;;;;4827195;29;20031;-82
2021/08/12 03:54:15;;;;;;;9.90;4.97;;;25.80;98.40;;;;;;4827181;29;20038;-82
2021/08/12 03:56:41;;;;;;;8.77;5.10;;;25.90;98.40;;;;;;4826936;29;20042;-81
2021/08/12 03:59:07;;;;;;;11.57;5.50;;;25.90;98.40;;;;;;4826927;29;20504;-80
2021/08/12 04:01:33;;;;;;;12.65;5.20;;;25.90;98.40;;;;;;4827233;29;20046;-82
2021/08/12 04:03:59;;;;;;;10.23;5.00;;;25.80;98.40;;;;;;4827594;29;20035;-81
2021/08/12 04:06:25;;;;;;;11.55;5.20;;;25.80;98.40;;;;;;4827242;29;20042;-81
2021/08/12 04:08:51;;;;;;;9.93;5.00;;;25.80;98.30;;;;;;4825876;29;20050;-80
2021/08/12 04:11:17;;;;;;;13.20;5.32;;;25.90;98.30;;;;;;4827140;29;20131;-81
2021/08/12 04:13:42;;;;;;;11.35;5.00;;;25.80;98.30;;;;;;4826284;29;20042;-81
2021/08/12 04:16:08;;;;;;;10.63;4.72;;;25.90;98.20;;;;;;4827197;29;20038;-80
2021/08/12 04:18:34;;;;;;;8.93;5.15;;;25.90;98.30;;;;;;4826632;29;20039;-80
2021/08/12 04:20:59;;;;;;;15.35;4.80;;;25.90;98.40;;;;;;4826563;29;20048;-82
2021/08/12 04:23:25;;;;;;;6.93;5.10;;;25.80;98.40;;;;;;4826728;29;20396;-83
2021/08/12 04:25:52;;;;;;;7.00;5.05;;;25.80;98.40;;;;;;4826998;29;20074;-83
2021/08/12 04:28:18;;;;;;;13.52;5.78;;;25.80;98.50;;;;;;4826709;29;20043;-80
2021/08/12 04:30:43;;;;;;;13.07;5.00;;;25.80;98.60;;;;;;4826993;29;20075;-81
2021/08/12 04:33:09;;;;;;;11.95;5.82;;;25.80;98.60;;;;;;4826747;29;20484;-81
2021/08/12 04:35:35;;;;;;;8.43;5.05;;;25.80;98.60;;;;;;4826596;29;20396;-80
2021/08/12 04:38:01;;;;;;;11.98;5.30;;;25.80;98.50;;;;;;4826666;29;20049;-79
2021/08/12 04:40:27;;;;;;;8.05;4.55;;;25.80;98.50;;;;;;4826623;29;20030;-82
2021/08/12 04:42:53;;;;;;;8.70;5.25;;;25.80;98.30;;;;;;4826712;29;20034;-80
2021/08/12 04:45:21;;;;;;;9.10;5.05;;;25.80;98.20;;;;;;4826780;29;20143;-80
2021/08/12 04:47:47;;;;;;;7.47;5.00;;;25.90;98.20;;;;;;4826188;29;20126;-81
2021/08/12 04:50:13;;;;;;;7.57;5.25;;;25.90;98.20;;;;;;4826075;29;20079;-80
2021/08/12 04:52:39;;;;;;;9.20;5.30;;;26.00;98.20;;;;;;4826144;29;20114;-80
2021/08/12 04:55:07;;;;;;;10.05;5.00;;;26.10;98.10;;;;;;4825311;29;20536;-80
2021/08/12 04:57:32;;;;;;;11.38;4.97;;;26.10;98.00;;;;;;4826511;29;20476;-80
2021/08/12 04:59:58;;;;;;;10.48;5.07;;;26.30;97.90;;;;;;4826113;29;20056;-82
2021/08/12 05:02:24;;;;;;;7.70;4.68;;;26.50;97.60;;;;;;4824988;29;20046;-82
2021/08/12 05:04:49;;;;;;;17.58;5.22;;;26.80;97.30;;;;;;4826177;29;20091;-83
2021/08/12 05:07:15;;;;;;;10.77;5.10;;;26.90;97.20;;;;;;4825360;29;20133;-83
2021/08/12 05:09:41;;;;;;;13.65;5.57;;;27.20;97.00;;;;;;4826501;29;20038;-83
2021/08/12 05:12:07;;;;;;;8.93;4.80;;;27.30;96.80;;;;;;4826315;29;20039;-84
2021/08/12 05:14:33;;;;;;;12.60;5.10;;;27.50;96.70;;;;;;4826452;29;20054;-82
2021/08/12 05:16:58;;;;;;;8.75;5.22;;;27.80;96.40;;;;;;4825996;29;20121;-90
2021/08/12 05:19:24;;;;;;;22.13;5.32;;;28.20;95.80;;;;;;4826432;29;20038;-86
2021/08/12 05:21:50;;;;;;;10.38;4.97;;;28.80;95.40;;;;;;4825489;29;20046;-83
2021/08/12 05:24:15;;;;;;;6.63;4.28;;;30.00;94.30;;;;;;4826263;29;20113;-83
2021/08/12 05:26:41;;;;;;;10.60;4.20;;;31.60;92.80;;;;;;4826316;29;20034;-84
2021/08/12 05:29:07;;;;;;;10.43;5.05;;;33.00;91.20;;;;;;4826153;29;20034;-84
2021/08/12 05:31:34;;;;;;;13.02;4.55;;;34.10;89.80;;;;;;4826006;29;20035;-82
2021/08/12 05:34:00;;;;;;;6.90;4.15;;;34.80;88.00;;;;;;4826503;29;20038;-86
2021/08/12 05:36:25;;;;;;;18.05;4.38;;;35.30;86.30;;;;;;4826186;29;20113;-85
2021/08/12 05:38:52;;;;;;;6.38;4.20;;;35.20;85.80;;;;;;4826306;29;20428;-85
2021/08/12 05:41:21;;;;;;;13.18;4.60;;;35.50;85.10;;;;;;4826120;29;20103;-86
2021/08/12 05:43:46;;;;;;;8.25;5.03;;;35.30;85.20;;;;;;4826316;29;20026;-86
2021/08/12 05:46:12;;;;;;;10.52;3.80;;;35.40;84.90;;;;;;4826329;29;20047;-80
2021/08/12 05:48:37;;;;;;;13.93;4.40;;;35.20;85.40;;;;;;4825196;29;20103;-79
2021/08/12 05:51:03;;;;;;;11.23;4.40;;;35.30;84.60;;;;;;4825177;29;20026;-78
2021/08/12 05:53:30;;;;;;;8.38;4.20;;;35.10;84.60;;;;;;4825019;29;20118;-78
2021/08/12 05:55:56;;;;;;;5.43;4.50;;;35.30;84.90;;;;;;4825297;29;20122;-78
2021/08/12 05:58:22;;;;;;;6.05;4.20;;;36.20;84.10;;;;;;4825305;29;20121;-78
2021/08/12 06:00:47;;;;;;;13.43;4.55;;;36.90;82.70;;;;;;4825108;29;20047;-77
2021/08/12 06:03:14;;;;;;;9.23;4.22;;;37.30;81.30;;;;;;4824954;29;20045;-78
2021/08/12 06:05:40;;;;;;;8.43;4.22;;;37.70;80.90;;;;;;4824615;29;20070;-78
2021/08/12 06:08:10;;;;;;;8.10;4.35;;;37.60;80.60;;;;;;4824991;29;20527;-78
2021/08/12 06:10:36;;;;;;;7.68;4.40;;;37.60;80.30;;;;;;4824798;29;20066;-77
2021/08/12 06:13:02;;;;;;;9.13;4.10;;;37.80;80.00;;;;;;4823836;29;20072;-77
2021/08/12 06:15:29;;;;;;;5.68;3.88;;;37.70;79.00;;;;;;4824774;29;20045;-78
2021/08/12 06:17:55;;;;;;;5.40;3.60;;;38.00;79.30;;;;;;4823810;29;20437;-77
2021/08/12 06:20:21;;;;;;;12.50;4.05;;;37.80;79.30;;;;;;4824937;29;20102;-77
2021/08/12 06:22:49;;;;;;;4.72;3.38;;;37.70;79.30;;;;;;4824969;29;20057;-78
2021/08/12 06:25:16;;;;;;;9.05;4.25;;;38.30;79.70;;;;;;4824575;29;20085;-78
2021/08/12 06:27:42;;;;;;;7.88;3.70;;;38.90;78.90;;;;;;4824794;29;20049;-77
2021/08/12 06:30:10;;;;;;;11.57;3.58;;;38.80;77.00;;;;;;4824990;29;20412;-77
2021/08/12 06:32:37;;;;;;;6.07;3.53;;;38.80;77.50;;;;;;4824525;29;20034;-77
2021/08/12 06:35:04;;;;;;;19.02;4.20;;;39.40;77.20;;;;;;4824801;29;20046;-78
2021/08/12 06:37:32;;;;;;;16.83;3.63;;;39.50;76.20;;;;;;4824784;29;20034;-77
2021/08/12 06:39:58;;;;;;;8.65;3.65;;;39.50;76.30;;;;;;4824466;29;20576;-78
2021/08/12 06:42:23;;;;;;;11.02;3.38;;;39.60;75.70;;;;;;4824698;29;20031;-77
2021/08/12 06:44:49;;;;;;;5.43;3.05;;;39.70;75.50;;;;;;4824480;29;20066;-77
2021/08/12 06:47:15;;;;;;;7.03;3.95;;;39.80;75.30;;;;;;4824397;29;20514;-78
2021/08/12 06:49:40;;;;;;;7.03;3.85;;;39.60;74.90;;;;;;4824442;29;20499;-77
2021/08/12 06:52:06;;;;;;;6.05;3.33;;;39.50;74.80;;;;;;4824224;29;20038;-78
2021/08/12 06:54:32;;;;;;;14.75;3.33;;;39.80;74.50;;;;;;4824611;29;20055;-77
2021/08/12 06:56:58;;;;;;;17.02;4.18;;;40.00;73.70;;;;;;4824383;29;20042;-77
2021/08/12 06:59:23;;;;;;;5.57;3.88;;;39.80;74.00;;;;;;4824403;29;20056;-78
2021/08/12 07:01:49;;;;;;;5.20;3.22;;;39.90;73.50;;;;;;4824439;29;20038;-77
2021/08/12 07:04:15;;;;;;;6.63;3.85;;;39.90;72.90;;;;;;4824622;29;20043;-78
2021/08/12 07:06:41;;;;;;;9.63;3.75;;;40.00;73.20;;;;;;4824084;29;20042;-78
2021/08/12 07:09:06;;;;;;;4.90;3.35;;;40.40;72.80;;;;;;4824367;29;20121;-78
2021/08/12 07:11:32;;;;;;;5.53;3.28;;;40.90;71.20;;;;;;4824205;29;20441;-77
2021/08/12 07:13:58;;;;;;;7.85;3.03;;;40.80;71.30;;;;;;4824465;29;20041;-77
2021/08/12 07:16:23;;;;;;;10.25;3.25;;;40.90;71.40;;;;;;4824273;29;20038;-78
2021/08/12 07:18:49;;;;;;;12.82;3.45;;;41.20;70.70;;;;;;4824123;29;20396;-78
2021/08/12 07:21:19;;;;;;;4.63;3.08;;;41.90;70.20;;;;;;4827831;29;20038;-77
2021/08/12 07:23:46;;;;;;;4.53;3.20;;;42.50;68.70;;;;;;4827788;29;20053;-78
2021/08/12 07:26:14;;;;;;;12.18;3.38;;;42.60;68.50;;;;;;4827199;29;20183;-77
2021/08/12 07:28:40;;;;;;;5.80;3.58;;;43.10;68.50;;;;;;4827590;29;20093;-78
2021/08/12 07:31:07;;;;;;;6.68;2.80;;;43.20;67.50;;;;;;4827486;29;20039;-77
2021/08/12 07:33:34;;;;;;;7.25;3.15;;;43.30;67.10;;;;;;4827713;29;20041;-77
2021/08/12 07:35:59;;;;;;;5.55;3.08;;;42.90;66.90;;;;;;4827137;29;20368;-78
2021/08/12 07:38:25;;;;;;;6.47;3.45;;;43.00;67.00;;;;;;4827366;29;20079;-78
2021/08/12 07:40:51;;;;;;;12.10;3.25;;;42.70;67.40;;;;;;4827642;29;20038;-78
2021/08/12 07:43:16;;;;;;;17.08;3.05;;;42.90;68.10;;;;;;4827449;29;20070;-77
2021/08/12 07:45:42;;;;;;;5.18;2.80;;;43.30;66.90;;;;;;4827442;29;20519;-78
2021/08/12 07:48:08;;;;;;;8.90;2.83;;;43.70;66.30;;;;;;4826831;29;20446;-78
2021/08/12 07:50:33;;;;;;;5.13;2.83;;;44.00;65.90;;;;;;4827118;29;20109;-75
2021/08/12 07:52:59;;;;;;;6.72;2.67;;;43.90;64.90;;;;;;4827072;29;20045;-75
2021/08/12 07:55:25;;;;;;;7.82;3.03;;;44.00;65.30;;;;;;4826895;29;20117;-75
2021/08/12 07:57:50;;;;;;;3.95;2.78;;;44.00;65.60;;;;;;4827422;29;20121;-75
2021/08/12 08:00:16;;;;;;;6.35;3.08;;;44.20;65.40;;;;;;4826668;29;20385;-75
2021/08/12 08:02:47;;;;;;;7.93;2.33;;;44.10;64.90;;;;;;4827078;29;20577;-75
2021/08/12 08:05:15;;;;;;;7.43;3.00;;;43.90;64.10;;;;;;4826731;29;20121;-75
2021/08/12 08:07:40;;;;;;;5.88;3.22;;;43.10;65.30;;;;;;4825396;29;20049;-76
2021/08/12 08:10:07;;;;;;;10.65;2.90;;;42.60;65.40;;;;;;4826400;29;20034;-75
2021/08/12 08:12:32;;;;;;;6.40;2.83;;;42.50;66.00;;;;;;4825705;29;20076;-75
2021/08/12 08:14:58;;;;;;;13.68;3.15;;;42.40;64.50;;;;;;4826409;29;20068;-76
2021/08/12 08:17:24;;;;;;;8.45;3.13;;;42.30;64.30;;;;;;4826500;29;20038;-75
2021/08/12 08:19:49;;;;;;;7.78;2.97;;;42.50;64.90;;;;;;4826312;29;20053;-78
2021/08/12 08:22:15;;;;;;;5.68;2.70;;;42.40;64.70;;;;;;4826168;29;20033;-76
2021/08/12 08:24:41;;;;;;;3.72;2.28;;;42.70;64.50;;;;;;4826457;29;20065;-76
2021/08/12 08:27:06;;;;;;;4.45;3.15;;;42.80;63.90;;;;;;4826124;29;20050;-76
2021/08/12 08:29:32;;;;;;;4.00;2.42;;;42.80;63.10;;;;;;4826139;29;20042;-76
2021/08/12 08:31:58;;;;;;;3.78;2.80;;;42.50;63.80;;;;;;4826414;29;20269;-76
2021/08/12 08:34:23;;;;;;;9.90;2.80;;;42.20;64.00;;;;;;4825934;29;20157;-78
2021/08/12 08:36:49;;;;;;;8.57;3.10;;;41.50;64.40;;;;;;4825873;29;20066;-76
2021/08/12 08:39:15;;;;;;;6.05;2.70;;;40.90;65.10;;;;;;4826196;29;20030;-76
2021/08/12 08:41:41;;;;;;;4.55;3.15;;;40.40;66.00;;;;;;4826046;29;20034;-76
2021/08/12 08:44:11;;;;;;;6.35;3.17;;;39.90;66.00;;;;;;4825938;29;20087;-76
2021/08/12 08:46:38;;;;;;;13.10;3.00;;;39.40;67.30;;;;;;4826058;29;20035;-76
2021/08/12 08:49:06;;;;;;;13.07;2.80;;;39.10;68.20;;;;;;4824592;29;20099;-75
2021/08/12 08:51:36;;;;;;;9.30;3.20;;;38.60;69.00;;;;;;4826014;29;20035;-75
2021/08/12 08:54:02;;;;;;;4.15;2.97;;;38.60;69.30;;;;;;4825994;29;20053;-75
2021/08/12 08:56:28;;;;;;;5.53;3.28;;;38.50;69.00;;;;;;4825773;29;20089;-75
2021/08/12 08:58:54;;;;;;;5.72;3.28;;;38.50;69.00;;;;;;4825652;29;20524;-75
2021/08/12 09:01:19;;;;;;;5.70;2.90;;;38.50;69.80;;;;;;4825403;29;20055;-76
2021/08/12 09:03:45;;;;;;;10.07;3.33;;;38.60;70.50;;;;;;4825715;29;20484;-76
2021/08/12 09:06:13;;;;;;;12.57;3.38;;;38.50;70.00;;;;;;4825586;29;20035;-75
2021/08/12 09:08:39;;;;;;;5.22;3.38;;;38.40;69.50;;;;;;4825818;29;20461;-77
2021/08/12 09:11:04;;;;;;;8.23;3.60;;;38.20;69.10;;;;;;4825582;29;20026;-76
2021/08/12 09:13:30;;;;;;;7.13;3.30;;;37.80;68.60;;;;;;4825531;29;20484;-76
2021/08/12 09:15:56;;;;;;;8.15;3.08;;;37.60;70.10;;;;;;4825257;29;20031;-75
2021/08/12 09:18:25;;;;;;;10.07;2.75;;;37.60;69.60;;;;;;4825594;29;20046;-76
2021/08/12 09:20:56;;;;;;;7.10;3.30;;;37.70;70.10;;;;;;4825439;29;20034;-76
2021/08/12 09:23:27;;;;;;;11.70;3.45;;;37.90;68.90;;;;;;4825501;29;20030;-76
2021/08/12 09:25:53;;;;;;;;;;;38.20;69.50;;;;;;4825630;29;20034;-76
2021/08/12 09:28:29;;;;;;;14.88;4.03;;;38.30;70.70;;;;;;4825370;29;19928;-77
2021/08/12 09:30:58;;;;;;;7.07;3.83;;;38.10;71.90;;;;;;4825179;29;20035;-75
2021/08/12 09:33:26;;;;;;;7.85;4.68;;;37.80;72.70;;;;;;4825443;29;20039;-77
2021/08/12 09:35:53;;;;;;;11.85;4.68;;;37.40;73.90;;;;;;4825287;29;20030;-76
2021/08/12 09:38:19;;;;;;;9.05;4.43;;;37.10;74.30;;;;;;4825260;29;20068;-75
2021/08/12 09:40:52;;;;;;;5.95;4.25;;;36.90;75.20;;;;;;4824758;29;20026;-77
2021/08/12 09:43:18;;;;;;;10.43;4.10;;;36.60;76.20;;;;;;4825254;29;20509;-75
2021/08/12 09:45:44;;;;;;;8.13;3.63;;;36.20;76.10;;;;;;4825283;29;20039;-76
2021/08/12 09:48:18;;;;;;;5.70;3.47;;;35.90;74.00;;;;;;4825327;29;20054;-76
2021/08/12 09:50:46;;;;;;;12.13;3.55;;;35.90;74.60;;;;;;4824920;29;20484;-76
2021/08/12 09:53:20;;;;;;;8.55;3.92;;;35.70;73.10;;;;;;4825638;29;20133;-80
2021/08/12 09:55:47;;;;;;;7.35;3.42;;;35.40;72.90;;;;;;4825302;29;20106;-78
2021/08/12 09:58:14;;;;;;;9.50;3.83;;;35.30;72.80;;;;;;4824831;29;20035;-79
2021/08/12 10:00:45;;;;;;;7.45;3.10;;;35.40;72.40;;;;;;4825085;29;20082;-76
2021/08/12 10:03:24;;;;;;;4.95;3.05;;;35.60;72.20;;;;;;4824882;29;20039;-78
2021/08/12 10:05:50;;;;;;;7.25;3.35;;;35.70;73.10;;;;;;4824761;29;20034;-78
2021/08/12 10:08:38;;;;;;;7.43;3.67;;;35.90;73.80;;;;;;4825132;29;20046;-78
2021/08/12 10:11:20;;;;;;;6.70;3.70;;;35.90;74.60;;;;;;4825076;29;20030;-78
2021/08/12 10:13:48;;;;;;;9.73;3.80;;;35.90;74.90;;;;;;4824773;29;20038;-78
2021/08/12 10:16:16;;;;;;;4.70;3.60;;;35.90;75.70;;;;;;4824616;29;20480;-79
2021/08/12 10:18:44;;;;;;;8.32;3.90;;;35.90;76.70;;;;;;4825321;29;20050;-78
2021/08/12 10:21:16;;;;;;;6.57;3.97;;;35.90;76.30;;;;;;4824919;29;20038;-79
2021/08/12 10:23:45;;;;;;;6.03;3.50;;;36.00;75.70;;;;;;4824927;29;20461;-78
2021/08/12 10:26:12;;;;;;;7.88;3.33;;;36.00;74.70;;;;;;4824813;29;20030;-78
2021/08/12 10:28:41;;;;;;;11.90;3.53;;;35.90;74.10;;;;;;4824611;29;20050;-78
2021/08/12 10:31:08;;;;;;;7.88;3.83;;;36.00;73.20;;;;;;4824602;29;20031;-78
2021/08/12 10:33:37;;;;;;;7.15;3.78;;;36.00;72.90;;;;;;4824596;29;20083;-78
2021/08/12 10:36:04;;;;;;;7.15;3.13;;;36.00;73.00;;;;;;4825101;29;20102;-79
2021/08/12 10:38:29;;;;;;;4.38;2.90;;;35.90;72.50;;;;;;4824527;29;20034;-79
2021/08/12 10:40:56;;;;;;;6.43;4.13;;;35.70;73.70;;;;;;4824791;29;20041;-78
2021/08/12 10:43:28;;;;;;;6.45;3.40;;;35.70;73.50;;;;;;4824172;29;20030;-79
2021/08/12 10:45:59;;;;;;;6.13;3.58;;;35.80;73.10;;;;;;4824596;29;20053;-79
2021/08/12 10:48:28;;;;;;;6.13;3.78;;;35.80;73.20;;;;;;4824110;29;20095;-79
2021/08/12 10:51:11;;;;;;;6.70;3.42;;;35.80;73.90;;;;;;4823170;29;20026;-77
2021/08/12 10:53:45;;;;;;;6.70;3.97;;;35.70;74.70;;;;;;4825985;29;20043;-77
2021/08/12 10:56:18;;;;;;;10.07;4.07;;;35.70;75.30;;;;;;4826925;29;20102;-78
2021/08/12 10:58:49;;;;;;;9.85;4.47;;;35.70;76.10;;;;;;4826881;29;20057;-78
2021/08/12 11:01:29;;;;;;;9.17;4.67;;;35.60;77.30;;;;;;4826839;29;20062;-80
2021/08/12 11:03:58;;;;;;;6.93;4.15;;;35.50;77.50;;;;;;4826935;29;20657;-81
2021/08/12 11:06:35;;;;;;;6.18;4.20;;;35.30;78.50;;;;;;4825316;29;20044;-82
2021/08/12 11:09:03;;;;;;;7.47;4.28;;;35.30;78.50;;;;;;4826636;29;20050;-82
2021/08/12 11:11:31;;;;;;;9.18;5.07;;;35.40;78.20;;;;;;4826534;29;20038;-82
2021/08/12 11:13:59;;;;;;;4.88;3.95;;;35.50;77.70;;;;;;4826827;29;20046;-83
2021/08/12 11:16:27;;;;;;;8.02;4.22;;;35.60;77.30;;;;;;4826525;29;20113;-83
2021/08/12 11:18:57;;;;;;;6.78;4.13;;;35.50;76.90;;;;;;4826474;29;20038;-82
2021/08/12 11:21:31;;;;;;;9.73;5.13;;;35.40;77.80;;;;;;4826604;29;20038;-82
2021/08/12 11:23:58;;;;;;;7.97;4.40;;;35.30;79.40;;;;;;4826547;29;20066;-83
2021/08/12 11:26:24;;;;;;;6.65;4.10;;;35.20;79.00;;;;;;4826395;29;20043;-81
2021/08/12 11:28:53;;;;;;;7.68;4.20;;;35.10;79.20;;;;;;4824888;29;20055;-82
2021/08/12 11:31:23;;;;;;;15.18;4.10;;;35.00;79.30;;;;;;4825984;29;20087;-82
2021/08/12 11:33:57;;;;;;;10.65;4.50;;;34.90;79.00;;;;;;4826086;29;20083;-83
2021/08/12 11:36:31;;;;;;;5.60;4.28;;;34.80;78.90;;;;;;4826234;29;20109;-83
2021/08/12 11:39:10;;;;;;;4.90;3.85;;;34.80;79.50;;;;;;4826352;29;20042;-83
2021/08/12 11:41:38;;;;;;;7.32;3.97;;;34.70;79.90;;;;;;4825806;29;20030;-82
2021/08/12 11:44:09;;;;;;;6.45;3.97;;;34.70;79.80;;;;;;4825956;29;20086;-83
2021/08/12 11:46:37;;;;;;;7.70;3.85;;;34.50;80.50;;;;;;4826064;29;20042;-82
2021/08/12 11:49:04;;;;;;;9.48;4.18;;;34.50;80.30;;;;;;4826103;29;20085;-82
2021/08/12 11:51:32;;;;;;;6.00;4.18;;;34.40;81.40;;;;;;4826083;29;20035;-80
2021/08/12 11:53:58;;;;;;;12.30;4.65;;;34.30;81.10;;;;;;4825891;29;20038;-80
2021/08/12 11:56:29;;;;;;;16.27;4.53;;;34.20;82.60;;;;;;4825831;29;20031;-82
2021/08/12 11:58:59;;;;;;;7.35;4.18;;;34.10;82.70;;;;;;4825947;29;20086;-78
2021/08/12 12:01:30;;;;;;;5.82;3.75;;;34.10;82.40;;;;;;4808062;29;20043;-84
2021/08/12 12:04:00;;;;;;;10.43;4.40;;;34.00;82.50;;;;;;4791211;29;20035;-82
2021/08/12 12:06:47;;;;;;;8.15;3.88;;;34.00;85.50;;;;;;4807649;29;20034;-83
2021/08/12 12:09:29;;;;;;;11.27;4.60;;;33.90;86.10;;;;;;4806631;29;20142;-82
2021/08/12 12:12:05;;;;;;;11.00;4.20;;;33.90;86.70;;;;;;4806669;29;20115;-80
2021/08/12 12:14:35;;;;;;;13.48;4.18;;;34.00;86.90;;;;;;4807011;29;20062;-82
2021/08/12 12:17:23;;;;;;;7.97;4.18;;;34.10;89.10;;;;;;4806291;29;20035;-80
2021/08/12 12:20:04;;;;;;;6.75;4.50;;;34.00;89.20;;;;;;4805615;29;20103;-79
2021/08/12 12:22:30;;;;;;;6.88;4.13;;;33.90;87.50;;;;;;4806306;29;20043;-83
2021/08/12 12:24:58;;;;;;;8.00;3.95;;;33.80;88.50;;;;;;4806639;29;20043;-80
2021/08/12 12:27:27;;;;;;;7.80;4.00;;;33.80;89.80;;;;;;4806511;29;20058;-81
2021/08/12 12:29:53;;;;;;;7.10;3.92;;;33.70;90.00;;;;;;4805790;29;20038;-81
2021/08/12 12:32:19;;;;;;;6.53;4.32;;;33.60;88.80;;;;;;4805520;29;20054;-79
2021/08/12 12:34:55;;;;;;;5.18;3.90;;;33.70;87.50;;;;;;4806307;29;20075;-82
2021/08/12 12:37:22;;;;;;;7.28;4.25;;;33.70;87.70;;;;;;4807911;29;20449;-83
2021/08/12 12:39:48;;;;;;;7.25;3.97;;;33.70;86.70;;;;;;4807725;29;20050;-82
2021/08/12 12:42:15;;;;;;;9.40;4.18;;;33.60;85.40;;;;;;4807715;29;20569;-81
2021/08/12 12:45:19;;;;;;;8.65;5.35;;;33.60;85.80;;;;;;4807901;29;20026;-84
2021/08/12 12:47:45;;;;;;;11.63;4.78;;;33.60;86.20;;;;;;4750928;30;20063;-80